sensor_id;sensor_type;location;lat;lon;timestamp;P1;durP1;ratioP1;P2;durP2;ratioP2
77522;SDS011;66637;-29.628;-49.938;2023-04-26T00:02:31;21.00;;;3.05;;
77522;SDS011;66637;-29.628;-49.938;2023-04-26T00:05:04;23.83;;;2.33;;
77522;SDS011;66637;-29.628;-49.938;2023-04-26T00:07:38;15.93;;;1.95;;
77522;SDS011;66637;-29.628;-49.938;2023-04-26T00:10:09;11.98;;;1.70;;
77522;SDS011;66637;-29.628;-49.938;2023-04-26T00:12:40;15.52;;;1.67;;
77522;SDS011;66637;-29.628;-49.938;2023-04-26T00:15:10;12.77;;;2.03;;
77522;SDS011;66637;-29.628;-49.938;2023-04-26T00:17:40;11.85;;;1.67;;
77522;SDS011;66637;-29.628;-49.938;2023-04-26T00:20:12;10.77;;;1.30;;
77522;SDS011;66637;-29.628;-49.938;2023-04-26T00:22:42;11.00;;;1.70;;
77522;SDS011;66637;-29.628;-49.938;2023-04-26T00:25:13;15.35;;;1.85;;
77522;SDS011;66637;-29.628;-49.938;2023-04-26T00:27:45;14.25;;;1.52;;
77522;SDS011;66637;-29.628;-49.938;2023-04-26T00:30:15;16.67;;;1.83;;
77522;SDS011;66637;-29.628;-49.938;2023-04-26T00:32:46;15.48;;;1.77;;
77522;SDS011;66637;-29.628;-49.938;2023-04-26T00:35:16;21.40;;;2.88;;
77522;SDS011;66637;-29.628;-49.938;2023-04-26T00:37:47;27.77;;;3.85;;
77522;SDS011;66637;-29.628;-49.938;2023-04-26T00:40:18;45.92;;;5.53;;
77522;SDS011;66637;-29.628;-49.938;2023-04-26T00:42:48;34.72;;;4.40;;
77522;SDS011;66637;-29.628;-49.938;2023-04-26T00:45:27;27.50;;;2.72;;
77522;SDS011;66637;-29.628;-49.938;2023-04-26T00:47:58;26.48;;;3.45;;
77522;SDS011;66637;-29.628;-49.938;2023-04-26T00:50:32;23.45;;;2.95;;
77522;SDS011;66637;-29.628;-49.938;2023-04-26T00:53:03;22.00;;;2.80;;
77522;SDS011;66637;-29.628;-49.938;2023-04-26T00:55:35;31.58;;;3.90;;
77522;SDS011;66637;-29.628;-49.938;2023-04-26T00:58:06;43.88;;;4.95;;
77522;SDS011;66637;-29.628;-49.938;2023-04-26T01:00:36;60.50;;;6.90;;
77522;SDS011;66637;-29.628;-49.938;2023-04-26T01:03:07;63.65;;;7.72;;
77522;SDS011;66637;-29.628;-49.938;2023-04-26T01:05:38;61.83;;;7.18;;
77522;SDS011;66637;-29.628;-49.938;2023-04-26T01:08:10;60.97;;;6.18;;
77522;SDS011;66637;-29.628;-49.938;2023-04-26T01:10:40;42.08;;;4.53;;
77522;SDS011;66637;-29.628;-49.938;2023-04-26T01:13:11;29.13;;;3.60;;
77522;SDS011;66637;-29.628;-49.938;2023-04-26T01:15:44;16.35;;;1.92;;
77522;SDS011;66637;-29.628;-49.938;2023-04-26T01:18:17;15.57;;;1.73;;
77522;SDS011;66637;-29.628;-49.938;2023-04-26T01:20:49;11.93;;;1.83;;
77522;SDS011;66637;-29.628;-49.938;2023-04-26T01:23:22;8.80;;;1.27;;
77522;SDS011;66637;-29.628;-49.938;2023-04-26T01:25:52;21.65;;;2.40;;
77522;SDS011;66637;-29.628;-49.938;2023-04-26T01:28:25;22.65;;;2.42;;
77522;SDS011;66637;-29.628;-49.938;2023-04-26T01:30:55;34.17;;;3.63;;
77522;SDS011;66637;-29.628;-49.938;2023-04-26T01:33:25;53.20;;;6.22;;
77522;SDS011;66637;-29.628;-49.938;2023-04-26T01:35:56;74.15;;;9.18;;
77522;SDS011;66637;-29.628;-49.938;2023-04-26T01:38:29;66.82;;;8.18;;
77522;SDS011;66637;-29.628;-49.938;2023-04-26T01:40:59;68.88;;;8.23;;
77522;SDS011;66637;-29.628;-49.938;2023-04-26T01:43:31;61.78;;;7.80;;
77522;SDS011;66637;-29.628;-49.938;2023-04-26T01:46:01;73.07;;;8.40;;
77522;SDS011;66637;-29.628;-49.938;2023-04-26T01:48:32;76.38;;;8.32;;
77522;SDS011;66637;-29.628;-49.938;2023-04-26T01:51:03;87.05;;;8.98;;
77522;SDS011;66637;-29.628;-49.938;2023-04-26T01:53:34;52.92;;;8.02;;
77522;SDS011;66637;-29.628;-49.938;2023-04-26T01:56:04;66.47;;;7.30;;
77522;SDS011;66637;-29.628;-49.938;2023-04-26T01:58:36;57.03;;;7.53;;
77522;SDS011;66637;-29.628;-49.938;2023-04-26T02:01:09;51.00;;;6.65;;
77522;SDS011;66637;-29.628;-49.938;2023-04-26T02:03:40;60.83;;;7.50;;
77522;SDS011;66637;-29.628;-49.938;2023-04-26T02:06:10;56.90;;;7.88;;
77522;SDS011;66637;-29.628;-49.938;2023-04-26T02:08:41;54.47;;;6.82;;
77522;SDS011;66637;-29.628;-49.938;2023-04-26T02:11:12;54.58;;;7.68;;
77522;SDS011;66637;-29.628;-49.938;2023-04-26T02:13:43;53.08;;;5.85;;
77522;SDS011;66637;-29.628;-49.938;2023-04-26T02:16:14;40.00;;;5.30;;
77522;SDS011;66637;-29.628;-49.938;2023-04-26T02:18:45;30.27;;;5.30;;
77522;SDS011;66637;-29.628;-49.938;2023-04-26T02:21:18;43.13;;;4.80;;
77522;SDS011;66637;-29.628;-49.938;2023-04-26T02:23:49;42.22;;;5.38;;
77522;SDS011;66637;-29.628;-49.938;2023-04-26T02:26:20;27.48;;;3.88;;
77522;SDS011;66637;-29.628;-49.938;2023-04-26T02:28:51;36.25;;;4.40;;
77522;SDS011;66637;-29.628;-49.938;2023-04-26T02:31:22;23.75;;;3.15;;
77522;SDS011;66637;-29.628;-49.938;2023-04-26T02:33:53;23.73;;;3.58;;
77522;SDS011;66637;-29.628;-49.938;2023-04-26T02:36:24;31.27;;;3.05;;
77522;SDS011;66637;-29.628;-49.938;2023-04-26T02:38:56;24.38;;;3.00;;
77522;SDS011;66637;-29.628;-49.938;2023-04-26T02:41:27;31.70;;;3.00;;
77522;SDS011;66637;-29.628;-49.938;2023-04-26T02:44:01;21.77;;;2.55;;
77522;SDS011;66637;-29.628;-49.938;2023-04-26T02:46:31;20.83;;;2.92;;
77522;SDS011;66637;-29.628;-49.938;2023-04-26T02:49:03;24.83;;;2.72;;
77522;SDS011;66637;-29.628;-49.938;2023-04-26T02:51:35;29.55;;;3.17;;
77522;SDS011;66637;-29.628;-49.938;2023-04-26T02:54:05;27.05;;;3.45;;
77522;SDS011;66637;-29.628;-49.938;2023-04-26T02:56:37;27.23;;;3.30;;
77522;SDS011;66637;-29.628;-49.938;2023-04-26T02:59:08;36.67;;;4.65;;
77522;SDS011;66637;-29.628;-49.938;2023-04-26T03:01:40;36.25;;;4.13;;
77522;SDS011;66637;-29.628;-49.938;2023-04-26T03:04:11;37.10;;;4.57;;
77522;SDS011;66637;-29.628;-49.938;2023-04-26T03:06:43;57.63;;;6.95;;
77522;SDS011;66637;-29.628;-49.938;2023-04-26T03:09:14;61.40;;;7.78;;
77522;SDS011;66637;-29.628;-49.938;2023-04-26T03:11:47;67.65;;;8.18;;
77522;SDS011;66637;-29.628;-49.938;2023-04-26T03:14:19;66.60;;;8.73;;
77522;SDS011;66637;-29.628;-49.938;2023-04-26T03:16:50;52.13;;;6.25;;
77522;SDS011;66637;-29.628;-49.938;2023-04-26T03:19:21;64.80;;;7.60;;
77522;SDS011;66637;-29.628;-49.938;2023-04-26T03:21:53;68.50;;;7.45;;
77522;SDS011;66637;-29.628;-49.938;2023-04-26T03:24:24;53.10;;;7.25;;
77522;SDS011;66637;-29.628;-49.938;2023-04-26T03:26:58;62.97;;;8.07;;
77522;SDS011;66637;-29.628;-49.938;2023-04-26T03:29:30;58.25;;;7.13;;
77522;SDS011;66637;-29.628;-49.938;2023-04-26T03:32:02;51.38;;;7.22;;
77522;SDS011;66637;-29.628;-49.938;2023-04-26T03:34:34;48.55;;;6.65;;
77522;SDS011;66637;-29.628;-49.938;2023-04-26T03:37:06;56.42;;;7.35;;
77522;SDS011;66637;-29.628;-49.938;2023-04-26T03:39:40;48.70;;;6.47;;
77522;SDS011;66637;-29.628;-49.938;2023-04-26T03:42:10;47.63;;;6.07;;
77522;SDS011;66637;-29.628;-49.938;2023-04-26T03:44:40;35.47;;;5.20;;
77522;SDS011;66637;-29.628;-49.938;2023-04-26T03:47:10;37.00;;;5.18;;
77522;SDS011;66637;-29.628;-49.938;2023-04-26T03:49:43;34.00;;;4.70;;
77522;SDS011;66637;-29.628;-49.938;2023-04-26T03:52:14;21.65;;;4.40;;
77522;SDS011;66637;-29.628;-49.938;2023-04-26T03:54:46;27.75;;;3.22;;
77522;SDS011;66637;-29.628;-49.938;2023-04-26T03:57:17;22.77;;;3.55;;
77522;SDS011;66637;-29.628;-49.938;2023-04-26T03:59:49;16.88;;;2.75;;
77522;SDS011;66637;-29.628;-49.938;2023-04-26T04:02:20;19.13;;;3.03;;
77522;SDS011;66637;-29.628;-49.938;2023-04-26T04:04:51;21.70;;;2.30;;
77522;SDS011;66637;-29.628;-49.938;2023-04-26T04:07:23;20.38;;;2.80;;
77522;SDS011;66637;-29.628;-49.938;2023-04-26T04:09:54;23.20;;;3.55;;
77522;SDS011;66637;-29.628;-49.938;2023-04-26T04:12:25;32.45;;;4.60;;
77522;SDS011;66637;-29.628;-49.938;2023-04-26T04:14:58;25.08;;;3.72;;
77522;SDS011;66637;-29.628;-49.938;2023-04-26T04:17:30;25.42;;;3.90;;
77522;SDS011;66637;-29.628;-49.938;2023-04-26T04:20:04;23.33;;;3.58;;
77522;SDS011;66637;-29.628;-49.938;2023-04-26T04:22:36;29.05;;;4.75;;
77522;SDS011;66637;-29.628;-49.938;2023-04-26T04:25:09;26.02;;;3.95;;
77522;SDS011;66637;-29.628;-49.938;2023-04-26T04:27:41;30.13;;;4.50;;
77522;SDS011;66637;-29.628;-49.938;2023-04-26T04:30:12;32.25;;;4.22;;
77522;SDS011;66637;-29.628;-49.938;2023-04-26T04:32:44;20.83;;;4.28;;
77522;SDS011;66637;-29.628;-49.938;2023-04-26T04:35:16;19.00;;;3.75;;
77522;SDS011;66637;-29.628;-49.938;2023-04-26T04:37:48;13.32;;;3.70;;
77522;SDS011;66637;-29.628;-49.938;2023-04-26T04:40:19;14.77;;;3.30;;
77522;SDS011;66637;-29.628;-49.938;2023-04-26T04:42:50;15.00;;;3.10;;
77522;SDS011;66637;-29.628;-49.938;2023-04-26T04:45:22;14.85;;;3.30;;
77522;SDS011;66637;-29.628;-49.938;2023-04-26T04:47:56;14.05;;;3.53;;
77522;SDS011;66637;-29.628;-49.938;2023-04-26T04:50:27;17.17;;;4.05;;
77522;SDS011;66637;-29.628;-49.938;2023-04-26T04:53:01;14.40;;;3.90;;
77522;SDS011;66637;-29.628;-49.938;2023-04-26T04:55:32;11.95;;;3.72;;
77522;SDS011;66637;-29.628;-49.938;2023-04-26T04:58:04;17.00;;;3.90;;
77522;SDS011;66637;-29.628;-49.938;2023-04-26T05:00:36;8.48;;;3.40;;
77522;SDS011;66637;-29.628;-49.938;2023-04-26T05:03:20;13.32;;;3.38;;
77522;SDS011;66637;-29.628;-49.938;2023-04-26T05:05:51;11.05;;;3.33;;
77522;SDS011;66637;-29.628;-49.938;2023-04-26T05:08:21;9.80;;;3.60;;
77522;SDS011;66637;-29.628;-49.938;2023-04-26T05:10:56;12.60;;;3.53;;
77522;SDS011;66637;-29.628;-49.938;2023-04-26T05:13:27;11.88;;;3.63;;
77522;SDS011;66637;-29.628;-49.938;2023-04-26T05:15:58;10.27;;;3.28;;
77522;SDS011;66637;-29.628;-49.938;2023-04-26T05:18:30;11.18;;;3.33;;
77522;SDS011;66637;-29.628;-49.938;2023-04-26T05:21:02;12.75;;;2.92;;
77522;SDS011;66637;-29.628;-49.938;2023-04-26T05:23:33;10.10;;;3.10;;
77522;SDS011;66637;-29.628;-49.938;2023-04-26T05:26:04;6.93;;;2.97;;
77522;SDS011;66637;-29.628;-49.938;2023-04-26T05:29:02;15.55;;;3.55;;
77522;SDS011;66637;-29.628;-49.938;2023-04-26T05:31:42;11.43;;;3.05;;
77522;SDS011;66637;-29.628;-49.938;2023-04-26T05:34:25;10.38;;;3.08;;
77522;SDS011;66637;-29.628;-49.938;2023-04-26T05:36:57;10.40;;;3.20;;
77522;SDS011;66637;-29.628;-49.938;2023-04-26T05:39:28;11.55;;;3.10;;
77522;SDS011;66637;-29.628;-49.938;2023-04-26T05:41:59;9.40;;;3.28;;
77522;SDS011;66637;-29.628;-49.938;2023-04-26T05:44:32;11.25;;;3.47;;
77522;SDS011;66637;-29.628;-49.938;2023-04-26T05:47:03;7.32;;;2.78;;
77522;SDS011;66637;-29.628;-49.938;2023-04-26T05:49:33;11.77;;;3.28;;
77522;SDS011;66637;-29.628;-49.938;2023-04-26T05:52:05;9.52;;;3.00;;
77522;SDS011;66637;-29.628;-49.938;2023-04-26T05:54:36;10.15;;;2.88;;
77522;SDS011;66637;-29.628;-49.938;2023-04-26T05:57:07;10.13;;;2.70;;
77522;SDS011;66637;-29.628;-49.938;2023-04-26T05:59:39;10.82;;;2.92;;
77522;SDS011;66637;-29.628;-49.938;2023-04-26T06:02:11;9.75;;;3.10;;
77522;SDS011;66637;-29.628;-49.938;2023-04-26T06:04:41;10.75;;;3.15;;
77522;SDS011;66637;-29.628;-49.938;2023-04-26T06:07:15;10.77;;;2.80;;
77522;SDS011;66637;-29.628;-49.938;2023-04-26T06:09:47;12.68;;;3.10;;
77522;SDS011;66637;-29.628;-49.938;2023-04-26T06:12:18;13.43;;;3.05;;
77522;SDS011;66637;-29.628;-49.938;2023-04-26T06:14:51;9.13;;;3.05;;
77522;SDS011;66637;-29.628;-49.938;2023-04-26T06:17:24;11.65;;;3.10;;
77522;SDS011;66637;-29.628;-49.938;2023-04-26T06:19:56;10.52;;;3.10;;
77522;SDS011;66637;-29.628;-49.938;2023-04-26T06:22:27;12.13;;;3.05;;
77522;SDS011;66637;-29.628;-49.938;2023-04-26T06:24:58;12.95;;;3.58;;
77522;SDS011;66637;-29.628;-49.938;2023-04-26T06:27:31;10.88;;;3.40;;
77522;SDS011;66637;-29.628;-49.938;2023-04-26T06:30:02;13.13;;;3.15;;
77522;SDS011;66637;-29.628;-49.938;2023-04-26T06:35:32;7.57;;;3.03;;
77522;SDS011;66637;-29.628;-49.938;2023-04-26T06:38:04;10.20;;;2.97;;
77522;SDS011;66637;-29.628;-49.938;2023-04-26T06:40:37;13.23;;;3.05;;
77522;SDS011;66637;-29.628;-49.938;2023-04-26T06:43:10;8.77;;;3.15;;
77522;SDS011;66637;-29.628;-49.938;2023-04-26T06:45:54;9.02;;;3.05;;
77522;SDS011;66637;-29.628;-49.938;2023-04-26T06:48:26;11.02;;;3.13;;
77522;SDS011;66637;-29.628;-49.938;2023-04-26T06:50:56;10.23;;;3.03;;
77522;SDS011;66637;-29.628;-49.938;2023-04-26T06:53:26;8.50;;;2.88;;
77522;SDS011;66637;-29.628;-49.938;2023-04-26T06:55:57;4.70;;;2.50;;
77522;SDS011;66637;-29.628;-49.938;2023-04-26T06:58:28;8.35;;;2.67;;
77522;SDS011;66637;-29.628;-49.938;2023-04-26T07:00:59;6.82;;;2.53;;
77522;SDS011;66637;-29.628;-49.938;2023-04-26T07:03:30;9.70;;;2.58;;
77522;SDS011;66637;-29.628;-49.938;2023-04-26T07:06:03;7.03;;;2.67;;
77522;SDS011;66637;-29.628;-49.938;2023-04-26T07:08:35;5.95;;;2.20;;
77522;SDS011;66637;-29.628;-49.938;2023-04-26T07:11:09;7.10;;;2.38;;
77522;SDS011;66637;-29.628;-49.938;2023-04-26T07:13:42;5.90;;;2.58;;
77522;SDS011;66637;-29.628;-49.938;2023-04-26T07:16:13;7.35;;;2.33;;
77522;SDS011;66637;-29.628;-49.938;2023-04-26T07:18:43;4.90;;;2.28;;
77522;SDS011;66637;-29.628;-49.938;2023-04-26T07:21:16;6.32;;;2.80;;
77522;SDS011;66637;-29.628;-49.938;2023-04-26T07:23:46;7.93;;;2.60;;
77522;SDS011;66637;-29.628;-49.938;2023-04-26T07:39:07;8.60;;;3.50;;
77522;SDS011;66637;-29.628;-49.938;2023-04-26T07:41:39;10.82;;;3.28;;
77522;SDS011;66637;-29.628;-49.938;2023-04-26T07:44:10;9.90;;;3.42;;
77522;SDS011;66637;-29.628;-49.938;2023-04-26T07:46:42;10.05;;;3.35;;
77522;SDS011;66637;-29.628;-49.938;2023-04-26T07:52:34;13.77;;;3.38;;
77522;SDS011;66637;-29.628;-49.938;2023-04-26T07:55:04;12.93;;;3.30;;
77522;SDS011;66637;-29.628;-49.938;2023-04-26T07:57:36;14.75;;;3.58;;
77522;SDS011;66637;-29.628;-49.938;2023-04-26T08:00:07;16.42;;;3.40;;
77522;SDS011;66637;-29.628;-49.938;2023-04-26T08:02:40;13.40;;;3.50;;
77522;SDS011;66637;-29.628;-49.938;2023-04-26T08:05:12;12.02;;;3.67;;
77522;SDS011;66637;-29.628;-49.938;2023-04-26T08:07:44;19.27;;;3.97;;
77522;SDS011;66637;-29.628;-49.938;2023-04-26T08:10:14;13.43;;;3.22;;
77522;SDS011;66637;-29.628;-49.938;2023-04-26T08:12:44;10.30;;;3.45;;
77522;SDS011;66637;-29.628;-49.938;2023-04-26T08:15:15;10.23;;;3.20;;
77522;SDS011;66637;-29.628;-49.938;2023-04-26T08:17:45;8.38;;;3.50;;
77522;SDS011;66637;-29.628;-49.938;2023-04-26T08:20:17;8.45;;;2.85;;
77522;SDS011;66637;-29.628;-49.938;2023-04-26T08:22:55;9.45;;;2.78;;
77522;SDS011;66637;-29.628;-49.938;2023-04-26T08:25:25;6.95;;;2.83;;
77522;SDS011;66637;-29.628;-49.938;2023-04-26T08:27:56;9.40;;;3.08;;
77522;SDS011;66637;-29.628;-49.938;2023-04-26T08:30:26;7.07;;;2.78;;
77522;SDS011;66637;-29.628;-49.938;2023-04-26T08:32:59;8.77;;;2.80;;
77522;SDS011;66637;-29.628;-49.938;2023-04-26T08:35:29;7.10;;;3.05;;
77522;SDS011;66637;-29.628;-49.938;2023-04-26T08:38:02;5.20;;;2.70;;
77522;SDS011;66637;-29.628;-49.938;2023-04-26T08:40:32;6.10;;;2.80;;
77522;SDS011;66637;-29.628;-49.938;2023-04-26T08:43:04;7.28;;;3.13;;
77522;SDS011;66637;-29.628;-49.938;2023-04-26T08:45:37;8.93;;;3.10;;
77522;SDS011;66637;-29.628;-49.938;2023-04-26T08:48:10;7.78;;;2.92;;
77522;SDS011;66637;-29.628;-49.938;2023-04-26T08:50:45;6.50;;;3.00;;
77522;SDS011;66637;-29.628;-49.938;2023-04-26T08:53:16;8.73;;;2.97;;
77522;SDS011;66637;-29.628;-49.938;2023-04-26T08:55:49;5.50;;;2.97;;
77522;SDS011;66637;-29.628;-49.938;2023-04-26T08:58:20;8.52;;;3.30;;
77522;SDS011;66637;-29.628;-49.938;2023-04-26T09:00:51;10.30;;;3.30;;
77522;SDS011;66637;-29.628;-49.938;2023-04-26T09:03:23;8.10;;;2.88;;
77522;SDS011;66637;-29.628;-49.938;2023-04-26T09:05:54;9.02;;;3.15;;
77522;SDS011;66637;-29.628;-49.938;2023-04-26T09:08:26;8.82;;;3.58;;
77522;SDS011;66637;-29.628;-49.938;2023-04-26T09:10:58;9.13;;;3.90;;
77522;SDS011;66637;-29.628;-49.938;2023-04-26T09:13:30;8.77;;;3.58;;
77522;SDS011;66637;-29.628;-49.938;2023-04-26T09:16:00;15.63;;;4.55;;
77522;SDS011;66637;-29.628;-49.938;2023-04-26T09:18:32;34.67;;;6.55;;
77522;SDS011;66637;-29.628;-49.938;2023-04-26T09:21:03;29.55;;;7.13;;
77522;SDS011;66637;-29.628;-49.938;2023-04-26T09:23:35;38.17;;;8.10;;
77522;SDS011;66637;-29.628;-49.938;2023-04-26T09:26:27;42.55;;;7.47;;
77522;SDS011;66637;-29.628;-49.938;2023-04-26T09:29:12;40.00;;;8.52;;
77522;SDS011;66637;-29.628;-49.938;2023-04-26T09:31:48;29.70;;;6.75;;
77522;SDS011;66637;-29.628;-49.938;2023-04-26T09:34:20;28.02;;;6.95;;
77522;SDS011;66637;-29.628;-49.938;2023-04-26T09:36:54;18.80;;;6.50;;
77522;SDS011;66637;-29.628;-49.938;2023-04-26T09:39:39;12.35;;;4.63;;
77522;SDS011;66637;-29.628;-49.938;2023-04-26T09:42:11;11.10;;;4.75;;
77522;SDS011;66637;-29.628;-49.938;2023-04-26T09:44:48;13.05;;;4.70;;
77522;SDS011;66637;-29.628;-49.938;2023-04-26T09:47:19;12.23;;;5.30;;
77522;SDS011;66637;-29.628;-49.938;2023-04-26T09:49:51;18.13;;;5.68;;
77522;SDS011;66637;-29.628;-49.938;2023-04-26T09:52:21;19.80;;;5.13;;
77522;SDS011;66637;-29.628;-49.938;2023-04-26T09:54:52;12.88;;;5.15;;
77522;SDS011;66637;-29.628;-49.938;2023-04-26T09:57:23;7.57;;;4.43;;
77522;SDS011;66637;-29.628;-49.938;2023-04-26T09:59:53;7.38;;;4.38;;
77522;SDS011;66637;-29.628;-49.938;2023-04-26T10:02:25;7.25;;;4.00;;
77522;SDS011;66637;-29.628;-49.938;2023-04-26T10:04:58;10.48;;;4.53;;
77522;SDS011;66637;-29.628;-49.938;2023-04-26T10:07:31;8.23;;;4.90;;
77522;SDS011;66637;-29.628;-49.938;2023-04-26T10:10:03;7.85;;;4.10;;
77522;SDS011;66637;-29.628;-49.938;2023-04-26T10:12:35;6.95;;;4.32;;
77522;SDS011;66637;-29.628;-49.938;2023-04-26T10:15:08;8.40;;;4.15;;
77522;SDS011;66637;-29.628;-49.938;2023-04-26T10:17:39;8.02;;;4.25;;
77522;SDS011;66637;-29.628;-49.938;2023-04-26T10:20:12;6.85;;;4.10;;
77522;SDS011;66637;-29.628;-49.938;2023-04-26T10:22:48;6.35;;;3.88;;
77522;SDS011;66637;-29.628;-49.938;2023-04-26T10:25:23;5.32;;;3.70;;
77522;SDS011;66637;-29.628;-49.938;2023-04-26T10:28:07;7.40;;;3.92;;
77522;SDS011;66637;-29.628;-49.938;2023-04-26T10:30:53;8.40;;;4.28;;
77522;SDS011;66637;-29.628;-49.938;2023-04-26T10:33:28;7.47;;;3.85;;
77522;SDS011;66637;-29.628;-49.938;2023-04-26T10:36:06;8.70;;;3.40;;
77522;SDS011;66637;-29.628;-49.938;2023-04-26T10:38:41;8.65;;;3.47;;
77522;SDS011;66637;-29.628;-49.938;2023-04-26T10:41:34;12.55;;;5.18;;
77522;SDS011;66637;-29.628;-49.938;2023-04-26T10:47:20;9.85;;;3.90;;
77522;SDS011;66637;-29.628;-49.938;2023-04-26T10:49:53;7.78;;;3.78;;
77522;SDS011;66637;-29.628;-49.938;2023-04-26T10:52:37;12.88;;;4.20;;
77522;SDS011;66637;-29.628;-49.938;2023-04-26T10:55:37;11.10;;;3.67;;
77522;SDS011;66637;-29.628;-49.938;2023-04-26T10:58:25;16.83;;;4.57;;
77522;SDS011;66637;-29.628;-49.938;2023-04-26T11:04:04;19.80;;;5.20;;
77522;SDS011;66637;-29.628;-49.938;2023-04-26T11:09:38;25.52;;;5.68;;
77522;SDS011;66637;-29.628;-49.938;2023-04-26T11:12:12;29.25;;;5.80;;
77522;SDS011;66637;-29.628;-49.938;2023-04-26T11:14:44;27.30;;;5.75;;
77522;SDS011;66637;-29.628;-49.938;2023-04-26T11:17:15;27.33;;;6.20;;
77522;SDS011;66637;-29.628;-49.938;2023-04-26T11:19:46;18.90;;;5.00;;
77522;SDS011;66637;-29.628;-49.938;2023-04-26T11:22:20;14.80;;;4.85;;
77522;SDS011;66637;-29.628;-49.938;2023-04-26T11:24:51;8.10;;;4.10;;
77522;SDS011;66637;-29.628;-49.938;2023-04-26T11:27:22;8.13;;;3.97;;
77522;SDS011;66637;-29.628;-49.938;2023-04-26T11:29:57;8.85;;;3.90;;
77522;SDS011;66637;-29.628;-49.938;2023-04-26T11:32:31;9.52;;;4.55;;
77522;SDS011;66637;-29.628;-49.938;2023-04-26T11:35:02;5.00;;;4.05;;
77522;SDS011;66637;-29.628;-49.938;2023-04-26T11:37:35;6.50;;;3.75;;
77522;SDS011;66637;-29.628;-49.938;2023-04-26T11:40:08;9.45;;;4.15;;
77522;SDS011;66637;-29.628;-49.938;2023-04-26T11:42:43;7.18;;;3.90;;
77522;SDS011;66637;-29.628;-49.938;2023-04-26T11:45:14;6.50;;;4.50;;
77522;SDS011;66637;-29.628;-49.938;2023-04-26T11:47:46;5.43;;;4.18;;
77522;SDS011;66637;-29.628;-49.938;2023-04-26T11:50:18;8.05;;;4.60;;
77522;SDS011;66637;-29.628;-49.938;2023-04-26T11:52:55;6.57;;;4.93;;
77522;SDS011;66637;-29.628;-49.938;2023-04-26T11:55:28;7.95;;;4.47;;
77522;SDS011;66637;-29.628;-49.938;2023-04-26T11:58:11;7.43;;;4.10;;
77522;SDS011;66637;-29.628;-49.938;2023-04-26T12:00:56;6.93;;;4.22;;
77522;SDS011;66637;-29.628;-49.938;2023-04-26T12:03:35;5.95;;;3.70;;
77522;SDS011;66637;-29.628;-49.938;2023-04-26T12:06:09;5.93;;;3.47;;
77522;SDS011;66637;-29.628;-49.938;2023-04-26T12:08:40;5.88;;;3.50;;
77522;SDS011;66637;-29.628;-49.938;2023-04-26T12:11:10;6.28;;;3.20;;
77522;SDS011;66637;-29.628;-49.938;2023-04-26T12:13:46;4.97;;;2.78;;
77522;SDS011;66637;-29.628;-49.938;2023-04-26T12:16:17;4.47;;;3.20;;
77522;SDS011;66637;-29.628;-49.938;2023-04-26T12:18:54;4.70;;;2.95;;
77522;SDS011;66637;-29.628;-49.938;2023-04-26T12:21:27;6.88;;;2.58;;
77522;SDS011;66637;-29.628;-49.938;2023-04-26T12:23:58;4.50;;;2.63;;
77522;SDS011;66637;-29.628;-49.938;2023-04-26T12:26:42;5.15;;;2.55;;
77522;SDS011;66637;-29.628;-49.938;2023-04-26T12:29:13;10.32;;;3.33;;
77522;SDS011;66637;-29.628;-49.938;2023-04-26T12:31:45;29.35;;;5.82;;
77522;SDS011;66637;-29.628;-49.938;2023-04-26T12:34:15;22.08;;;4.10;;
77522;SDS011;66637;-29.628;-49.938;2023-04-26T12:36:45;30.58;;;5.25;;
77522;SDS011;66637;-29.628;-49.938;2023-04-26T12:39:15;24.13;;;4.50;;
77522;SDS011;66637;-29.628;-49.938;2023-04-26T12:41:46;32.00;;;5.28;;
77522;SDS011;66637;-29.628;-49.938;2023-04-26T12:44:17;28.67;;;5.03;;
77522;SDS011;66637;-29.628;-49.938;2023-04-26T12:46:49;18.35;;;4.30;;
77522;SDS011;66637;-29.628;-49.938;2023-04-26T12:49:19;21.40;;;4.25;;
77522;SDS011;66637;-29.628;-49.938;2023-04-26T12:51:50;21.85;;;4.25;;
77522;SDS011;66637;-29.628;-49.938;2023-04-26T12:54:22;26.98;;;3.83;;
77522;SDS011;66637;-29.628;-49.938;2023-04-26T12:56:52;30.70;;;5.20;;
77522;SDS011;66637;-29.628;-49.938;2023-04-26T12:59:22;20.10;;;4.53;;
77522;SDS011;66637;-29.628;-49.938;2023-04-26T13:01:54;16.65;;;3.97;;
77522;SDS011;66637;-29.628;-49.938;2023-04-26T13:04:25;20.55;;;4.07;;
77522;SDS011;66637;-29.628;-49.938;2023-04-26T13:06:57;21.15;;;4.25;;
77522;SDS011;66637;-29.628;-49.938;2023-04-26T13:09:27;14.32;;;3.45;;
77522;SDS011;66637;-29.628;-49.938;2023-04-26T13:11:58;20.45;;;4.10;;
77522;SDS011;66637;-29.628;-49.938;2023-04-26T13:14:28;13.60;;;4.07;;
77522;SDS011;66637;-29.628;-49.938;2023-04-26T13:16:59;12.77;;;3.80;;
77522;SDS011;66637;-29.628;-49.938;2023-04-26T13:19:30;12.63;;;3.95;;
77522;SDS011;66637;-29.628;-49.938;2023-04-26T13:22:02;13.45;;;3.90;;
77522;SDS011;66637;-29.628;-49.938;2023-04-26T13:24:34;12.82;;;3.85;;
77522;SDS011;66637;-29.628;-49.938;2023-04-26T13:27:06;17.02;;;4.03;;
77522;SDS011;66637;-29.628;-49.938;2023-04-26T13:29:36;14.52;;;4.10;;
77522;SDS011;66637;-29.628;-49.938;2023-04-26T13:32:07;14.23;;;3.88;;
77522;SDS011;66637;-29.628;-49.938;2023-04-26T13:34:37;14.68;;;4.03;;
77522;SDS011;66637;-29.628;-49.938;2023-04-26T13:37:08;12.10;;;4.47;;
77522;SDS011;66637;-29.628;-49.938;2023-04-26T13:39:40;10.65;;;4.05;;
77522;SDS011;66637;-29.628;-49.938;2023-04-26T13:42:12;14.23;;;4.10;;
77522;SDS011;66637;-29.628;-49.938;2023-04-26T13:44:44;12.65;;;4.05;;
77522;SDS011;66637;-29.628;-49.938;2023-04-26T13:47:14;11.27;;;4.13;;
77522;SDS011;66637;-29.628;-49.938;2023-04-26T13:49:46;13.75;;;4.00;;
77522;SDS011;66637;-29.628;-49.938;2023-04-26T13:52:16;9.90;;;3.67;;
77522;SDS011;66637;-29.628;-49.938;2023-04-26T13:54:46;11.75;;;3.80;;
77522;SDS011;66637;-29.628;-49.938;2023-04-26T13:57:18;10.02;;;4.25;;
77522;SDS011;66637;-29.628;-49.938;2023-04-26T13:59:48;8.65;;;4.00;;
77522;SDS011;66637;-29.628;-49.938;2023-04-26T14:02:20;9.10;;;3.35;;
77522;SDS011;66637;-29.628;-49.938;2023-04-26T14:04:51;7.28;;;3.28;;
77522;SDS011;66637;-29.628;-49.938;2023-04-26T14:07:21;8.27;;;3.20;;
77522;SDS011;66637;-29.628;-49.938;2023-04-26T14:09:52;7.47;;;3.42;;
77522;SDS011;66637;-29.628;-49.938;2023-04-26T14:12:22;6.03;;;2.80;;
77522;SDS011;66637;-29.628;-49.938;2023-04-26T14:14:52;4.90;;;2.42;;
77522;SDS011;66637;-29.628;-49.938;2023-04-26T14:17:23;3.47;;;2.65;;
77522;SDS011;66637;-29.628;-49.938;2023-04-26T14:19:56;3.83;;;2.65;;
77522;SDS011;66637;-29.628;-49.938;2023-04-26T14:22:26;4.63;;;3.20;;
77522;SDS011;66637;-29.628;-49.938;2023-04-26T14:24:57;3.63;;;2.95;;
77522;SDS011;66637;-29.628;-49.938;2023-04-26T14:27:27;3.50;;;2.50;;
77522;SDS011;66637;-29.628;-49.938;2023-04-26T14:29:58;2.78;;;2.20;;
77522;SDS011;66637;-29.628;-49.938;2023-04-26T14:32:28;3.97;;;2.63;;
77522;SDS011;66637;-29.628;-49.938;2023-04-26T14:34:59;3.33;;;2.30;;
77522;SDS011;66637;-29.628;-49.938;2023-04-26T14:37:29;3.42;;;2.65;;
77522;SDS011;66637;-29.628;-49.938;2023-04-26T14:40:00;2.85;;;2.20;;
77522;SDS011;66637;-29.628;-49.938;2023-04-26T14:42:32;2.92;;;2.05;;
77522;SDS011;66637;-29.628;-49.938;2023-04-26T14:45:04;2.88;;;2.30;;
77522;SDS011;66637;-29.628;-49.938;2023-04-26T14:47:36;3.97;;;3.20;;
77522;SDS011;66637;-29.628;-49.938;2023-04-26T14:50:07;2.35;;;1.70;;
77522;SDS011;66637;-29.628;-49.938;2023-04-26T14:52:38;2.90;;;2.00;;
77522;SDS011;66637;-29.628;-49.938;2023-04-26T14:55:10;3.40;;;2.20;;
77522;SDS011;66637;-29.628;-49.938;2023-04-26T14:57:46;2.33;;;1.70;;
77522;SDS011;66637;-29.628;-49.938;2023-04-26T15:00:16;2.67;;;1.60;;